Airport View

Enter AWOS ICAO identifier for current METAR.

ex. KFNL

KPVB 040510Z AUTO 00000KT 10SM OVC070 15/15 A3013 RMK AO1 T01520152

4 Aug 2020 05:13

Frequency: 120.575

Phone: 608-348-3637

Other Area AWOS: KMRJ - KDBQ - KOVS - KLNR

TAF KDBQ 032330Z 0400/0424 02008KT P6SM BKN050 FM040400 01004KT P6SM SCT060 FM041600 02008KT P6SM BKN040